Home   Weather   USA   Waukesha   Past weeks
Flag for USA

Past Weather in Waukesha, Wisconsin, USA — Yesterday and Last 2 Weeks

Currently: 64 °F. Overcast. (Weather station: Waukesha County Airport, USA). See more current weather

Past Weather in Waukesha — Graph

°F

Waukesha Temperature Yesterday

Maximum temperature yesterday: 72 °F (at 11:45 am)
Minimum temperature yesterday: 55 °F (at 10:35 pm)
Average temperature yesterday: 65 °F

High & Low Weather Summary for the Past Weeks

 TemperatureHumidityPressure
High82 °F (May 18, 3:45 pm)100% (May 7, 9:45 am)30.12 "Hg (May 7, 9:45 am)
Low39 °F (May 10, 4:55 am)28% (May 12, 4:45 pm)29.46 "Hg (May 7, 4:20 pm)
Average56 °F67%29.84 "Hg
* Reported May 5 9:45 am — May 20 9:45 am, Waukesha. Weather by CustomWeather, © 2024

Note: Actual official high and low records may vary slightly from our data, if they occured in-between our weather recording intervals... More about our weather records

Waukesha Weather History for the Previous 24 Hours

Scroll right to see more
 ConditionsComfort  
Time TempWeatherWind HumidityBarometerVisibility
9:45 am
Mon, May 20
61 °FBroken clouds.6 mph77%29.92 "Hg10 mi
8:45 am57 °FScattered clouds.8 mph82%29.92 "Hg10 mi
7:45 am54 °FScattered clouds.6 mph100%29.93 "Hg10 mi
6:45 am52 °FScattered clouds.6 mph100%29.94 "Hg10 mi
6:10 am54 °FMore clouds than sun.9 mph82%29.96 "Hg10 mi
5:45 am59 °FStrong thunderstorms. Mostly cloudy.12 mph55%29.97 "Hg3 mi
5:15 am55 °FPassing clouds.20 mph55%29.95 "Hg10 mi
4:55 am55 °FClear.No wind55%29.90 "Hg10 mi
4:35 am54 °FClear.No wind58%29.90 "Hg10 mi
4:15 am55 °FClear.No wind51%29.90 "Hg10 mi
3:55 am55 °FClear.No wind55%29.92 "Hg10 mi
3:35 am57 °FClear.No wind44%29.92 "Hg10 mi
2:55 am57 °FClear.No wind44%29.93 "Hg10 mi
2:15 am59 °FClear.5 mph42%29.93 "Hg10 mi
1:55 am57 °FClear.9 mph44%29.93 "Hg10 mi
1:35 am54 °FClear.3 mph51%29.94 "Hg10 mi
1:15 am57 °FClear.5 mph41%29.95 "Hg10 mi
12:55 am55 °FClear.No wind47%29.97 "Hg10 mi
12:35 am59 °FClear.6 mph42%29.98 "Hg10 mi
11:55 pm
Sun, May 19
57 °FClear.8 mph44%29.99 "Hg10 mi
11:35 pm55 °FClear.No wind47%29.98 "Hg10 mi
11:15 pm55 °FClear.8 mph51%29.96 "Hg10 mi
10:55 pm55 °FClear.6 mph63%29.97 "Hg10 mi
10:35 pm55 °FClear.No wind63%30.00 "Hg10 mi
9:55 pm59 °FClear.No wind51%30.00 "Hg10 mi
9:35 pm59 °FClear.No wind51%30.00 "Hg10 mi
8:55 pm61 °FClear.3 mph42%30.00 "Hg10 mi
7:45 pm63 °FSunny.12 mph42%30.01 "Hg10 mi
6:45 pm64 °FSunny.12 mph40%30.00 "Hg10 mi
5:45 pm66 °FSunny.12 mph40%29.99 "Hg10 mi
4:45 pm70 °FSunny.12 mph38%30.01 "Hg10 mi
3:45 pm72 °FSunny.12 mph38%30.02 "Hg10 mi
2:45 pm72 °FSunny.12 mph38%30.00 "Hg10 mi
1:45 pm72 °FSunny.8 mph38%30.02 "Hg10 mi
12:45 pm72 °FSunny.7 mph41%30.03 "Hg10 mi
11:45 am72 °FSunny.3 mph36%30.04 "Hg10 mi
Weather by CustomWeather, © 2024

See weather overview